createdAt,value
2019-06-26T00:01:35.805Z,15.38
2019-06-26T00:04:02.002Z,15.70
2019-06-26T00:06:28.173Z,15.40
2019-06-26T00:08:54.356Z,14.18
2019-06-26T00:11:20.513Z,14.63
2019-06-26T00:13:46.744Z,14.18
2019-06-26T00:16:12.921Z,14.70
2019-06-26T00:18:39.130Z,15.15
2019-06-26T00:21:05.288Z,15.38
2019-06-26T00:23:31.478Z,15.93
2019-06-26T00:25:57.956Z,15.68
2019-06-26T00:28:24.151Z,14.95
2019-06-26T00:30:50.309Z,15.68
2019-06-26T00:33:17.521Z,15.65
2019-06-26T00:35:43.685Z,15.95
2019-06-26T00:38:10.985Z,15.38
2019-06-26T00:40:37.149Z,15.40
2019-06-26T00:43:03.343Z,14.78
2019-06-26T00:45:29.501Z,13.90
2019-06-26T00:47:55.704Z,14.98
2019-06-26T00:50:21.994Z,14.47
2019-06-26T00:52:48.168Z,14.87
2019-06-26T00:55:14.343Z,15.50
2019-06-26T00:57:40.642Z,14.47
2019-06-26T01:00:10.461Z,14.28
2019-06-26T01:02:37.298Z,14.95
2019-06-26T01:05:07.656Z,14.40
2019-06-26T01:07:33.860Z,14.47
2019-06-26T01:10:00.053Z,14.65
2019-06-26T01:12:27.362Z,14.10
2019-06-26T01:14:54.649Z,14.63
2019-06-26T01:17:20.900Z,13.78
2019-06-26T01:19:47.088Z,16.32
2019-06-26T01:22:13.266Z,14.90
2019-06-26T01:24:39.548Z,14.85
2019-06-26T01:27:05.741Z,15.03
2019-06-26T01:29:32.732Z,15.28
2019-06-26T01:31:59.118Z,14.73
2019-06-26T01:34:25.290Z,15.00
2019-06-26T01:36:51.449Z,14.15
2019-06-26T01:39:17.628Z,14.58
2019-06-26T01:41:43.804Z,15.08
2019-06-26T01:44:14.997Z,15.18
2019-06-26T01:46:38.066Z,14.63
2019-06-26T01:49:04.234Z,14.55
2019-06-26T01:51:31.446Z,14.87
2019-06-26T01:53:57.611Z,14.10
2019-06-26T01:56:24.041Z,13.95
2019-06-26T01:58:50.232Z,13.93
2019-06-26T02:01:16.541Z,13.18
2019-06-26T02:03:42.725Z,13.15
2019-06-26T02:06:08.911Z,13.58
2019-06-26T02:08:35.070Z,13.20
2019-06-26T02:11:01.452Z,13.70
2019-06-26T02:13:27.609Z,12.60
2019-06-26T02:15:53.792Z,13.20
2019-06-26T02:18:38.509Z,12.95
2019-06-26T02:21:04.686Z,12.68
2019-06-26T02:23:30.941Z,13.70
2019-06-26T02:25:57.265Z,12.03
2019-06-26T02:28:23.513Z,12.82
2019-06-26T02:30:49.680Z,12.63
2019-06-26T02:33:15.891Z,12.58
2019-06-26T02:35:42.053Z,12.70
2019-06-26T02:38:08.263Z,12.35
2019-06-26T02:40:34.698Z,13.40
2019-06-26T02:43:06.323Z,12.90
2019-06-26T02:45:29.080Z,13.45
2019-06-26T02:47:55.239Z,14.15
2019-06-26T02:50:21.445Z,13.70
2019-06-26T02:52:47.686Z,13.28
2019-06-26T02:55:13.959Z,13.48
2019-06-26T02:57:40.149Z,13.35
2019-06-26T03:00:07.194Z,13.48
2019-06-26T03:02:33.926Z,13.38
2019-06-26T03:05:00.131Z,13.43
2019-06-26T03:07:26.413Z,13.98
2019-06-26T03:09:52.589Z,13.32
2019-06-26T03:12:18.753Z,13.88
2019-06-26T03:14:44.917Z,13.85
2019-06-26T03:17:11.093Z,12.65
2019-06-26T03:19:37.254Z,12.53
2019-06-26T03:22:03.449Z,12.95
2019-06-26T03:24:29.629Z,12.37
2019-06-26T03:26:55.833Z,12.18
2019-06-26T03:29:22.017Z,11.88
2019-06-26T03:31:48.205Z,13.00
2019-06-26T03:34:14.387Z,12.90
2019-06-26T03:36:40.579Z,12.37
2019-06-26T03:39:06.948Z,12.55
2019-06-26T03:41:33.118Z,12.23
2019-06-26T03:43:59.376Z,12.60
2019-06-26T03:46:25.537Z,12.58
2019-06-26T03:48:51.745Z,12.58
2019-06-26T03:51:17.992Z,12.58
2019-06-26T03:53:44.291Z,12.30
2019-06-26T03:56:10.604Z,12.63
2019-06-26T03:58:36.766Z,11.70
2019-06-26T04:01:03.282Z,12.43
2019-06-26T04:03:29.874Z,12.23
2019-06-26T04:05:56.994Z,11.73
2019-06-26T04:08:23.153Z,11.50
2019-06-26T04:10:49.328Z,12.07
2019-06-26T04:13:15.575Z,12.20
2019-06-26T04:15:42.883Z,11.25
2019-06-26T04:18:09.448Z,10.25
2019-06-26T04:20:35.649Z,10.82
2019-06-26T04:23:01.844Z,10.60
2019-06-26T04:25:28.017Z,11.33
2019-06-26T04:27:54.178Z,10.20
2019-06-26T04:30:20.782Z,9.63
2019-06-26T04:32:47.008Z,8.80
2019-06-26T04:35:13.968Z,9.00
2019-06-26T04:37:40.145Z,9.05
2019-06-26T04:40:07.005Z,8.45
2019-06-26T04:42:34.495Z,8.15
2019-06-26T04:45:00.669Z,8.70
2019-06-26T04:47:26.842Z,7.87
2019-06-26T04:49:52.996Z,8.05
2019-06-26T04:52:19.270Z,8.18
2019-06-26T04:54:45.473Z,8.30
2019-06-26T04:57:11.700Z,8.00
2019-06-26T04:59:37.931Z,7.60
2019-06-26T05:02:04.260Z,7.15
2019-06-26T05:04:31.502Z,7.58
2019-06-26T05:06:57.725Z,7.67
2019-06-26T05:09:23.989Z,7.92
2019-06-26T05:11:50.197Z,7.72
2019-06-26T05:14:16.349Z,7.67
2019-06-26T05:16:42.560Z,7.25
2019-06-26T05:19:08.734Z,7.67
2019-06-26T05:21:34.949Z,7.15
2019-06-26T05:24:02.258Z,7.30
2019-06-26T05:26:29.958Z,6.72
2019-06-26T05:28:56.145Z,6.72
2019-06-26T05:31:22.384Z,6.53
2019-06-26T05:33:48.704Z,7.05
2019-06-26T05:36:14.881Z,7.17
2019-06-26T05:38:41.105Z,6.78
2019-06-26T05:41:07.290Z,7.03
2019-06-26T05:43:33.477Z,6.37
2019-06-26T05:45:59.644Z,7.40
2019-06-26T05:48:25.818Z,7.12
2019-06-26T05:50:52.022Z,6.42
2019-06-26T05:53:18.181Z,7.05
2019-06-26T05:55:44.387Z,7.12
2019-06-26T05:58:10.611Z,6.80
2019-06-26T06:00:36.777Z,7.30
2019-06-26T06:03:03.078Z,6.78
2019-06-26T06:05:29.248Z,7.03
2019-06-26T06:07:55.456Z,6.47
2019-06-26T06:10:21.938Z,6.75
2019-06-26T06:12:48.117Z,6.55
2019-06-26T06:15:14.821Z,6.53
2019-06-26T06:17:41.170Z,5.83
2019-06-26T06:20:09.164Z,6.85
2019-06-26T06:22:36.443Z,6.72
2019-06-26T06:25:03.894Z,5.85
2019-06-26T06:27:30.193Z,6.60
2019-06-26T06:29:56.361Z,6.40
2019-06-26T06:32:22.560Z,6.92
2019-06-26T06:34:48.754Z,6.83
2019-06-26T06:37:14.949Z,7.25
2019-06-26T06:39:41.161Z,7.28
2019-06-26T06:42:07.320Z,6.83
2019-06-26T06:44:33.514Z,6.67
2019-06-26T06:47:04.379Z,6.65
2019-06-26T06:49:27.786Z,6.87
2019-06-26T06:51:53.993Z,6.50
2019-06-26T06:54:20.182Z,6.80
2019-06-26T06:56:46.471Z,6.70
2019-06-26T06:59:12.787Z,6.85
2019-06-26T07:01:38.943Z,6.60
2019-06-26T07:04:05.120Z,6.35
2019-06-26T07:06:31.286Z,6.70
2019-06-26T07:08:57.490Z,6.65
2019-06-26T07:11:23.640Z,6.50
2019-06-26T07:13:49.941Z,6.70
2019-06-26T07:16:16.184Z,6.30
2019-06-26T07:18:42.458Z,6.45
2019-06-26T07:21:08.637Z,6.28
2019-06-26T07:23:34.808Z,6.35
2019-06-26T07:26:00.973Z,7.42
2019-06-26T07:28:27.270Z,6.25
2019-06-26T07:30:53.435Z,6.42
2019-06-26T07:33:19.617Z,6.22
2019-06-26T07:35:45.836Z,5.95
2019-06-26T07:38:12.084Z,5.97
2019-06-26T07:40:38.281Z,6.58
2019-06-26T07:43:04.473Z,6.80
2019-06-26T07:45:30.777Z,6.25
2019-06-26T07:47:57.305Z,6.72
2019-06-26T07:50:23.464Z,6.37
2019-06-26T07:52:49.670Z,7.00
2019-06-26T07:55:16.036Z,6.45
2019-06-26T07:57:42.328Z,6.30
2019-06-26T08:00:09.304Z,6.62
2019-06-26T08:02:35.597Z,6.60
2019-06-26T08:05:03.669Z,6.60
2019-06-26T08:07:30.438Z,7.05
2019-06-26T08:09:56.662Z,7.30
2019-06-26T08:12:22.890Z,6.37
2019-06-26T08:14:49.087Z,7.00
2019-06-26T08:17:15.262Z,7.03
2019-06-26T08:19:41.460Z,6.50
2019-06-26T08:22:07.624Z,6.67
2019-06-26T08:24:33.824Z,6.90
2019-06-26T08:26:59.985Z,7.67
2019-06-26T08:29:26.168Z,6.90
2019-06-26T08:31:52.386Z,6.60
2019-06-26T08:34:18.588Z,7.33
2019-06-26T08:36:44.766Z,6.90
2019-06-26T08:39:10.945Z,6.78
2019-06-26T08:41:37.224Z,6.92
2019-06-26T08:44:03.575Z,6.85
2019-06-26T08:46:29.840Z,6.62
2019-06-26T08:48:56.125Z,7.42
2019-06-26T08:51:22.394Z,7.00
2019-06-26T08:53:48.581Z,6.83
2019-06-26T08:56:14.775Z,7.10
2019-06-26T08:58:40.937Z,7.15
2019-06-26T09:01:07.141Z,6.92
2019-06-26T09:03:33.345Z,6.50
2019-06-26T09:05:59.549Z,6.95
2019-06-26T09:08:25.900Z,7.60
2019-06-26T09:10:52.324Z,8.10
2019-06-26T09:13:18.525Z,7.00
2019-06-26T09:15:47.256Z,7.60
2019-06-26T09:18:12.756Z,6.87
2019-06-26T09:20:39.565Z,6.78
2019-06-26T09:23:05.956Z,7.65
2019-06-26T09:25:34.229Z,7.37
2019-06-26T09:28:00.392Z,7.37
2019-06-26T09:30:26.945Z,7.30
2019-06-26T09:32:53.144Z,7.42
2019-06-26T09:35:19.417Z,8.05
2019-06-26T09:37:45.569Z,7.72
2019-06-26T09:40:13.659Z,6.92
2019-06-26T09:42:39.854Z,7.55
2019-06-26T09:45:07.678Z,7.42
2019-06-26T09:47:35.379Z,7.50
2019-06-26T09:50:04.922Z,7.22
2019-06-26T09:52:31.134Z,7.45
2019-06-26T09:54:58.381Z,7.62
2019-06-26T09:57:24.607Z,6.47
2019-06-26T09:59:50.842Z,7.03
2019-06-26T10:02:17.119Z,7.20
2019-06-26T10:04:43.259Z,7.05
2019-06-26T10:07:09.462Z,7.22
2019-06-26T10:09:37.126Z,6.90
2019-06-26T10:12:04.360Z,7.45
2019-06-26T10:14:46.479Z,6.83
2019-06-26T10:16:58.610Z,7.00
2019-06-26T10:19:24.805Z,6.80
2019-06-26T10:21:51.077Z,6.20
2019-06-26T10:24:17.306Z,7.35
2019-06-26T10:26:43.541Z,6.72
2019-06-26T10:29:09.793Z,6.25
2019-06-26T10:31:36.065Z,7.35
2019-06-26T10:34:02.921Z,7.03
2019-06-26T10:36:29.118Z,6.90
2019-06-26T10:38:55.346Z,6.78
2019-06-26T10:41:21.613Z,8.35
2019-06-26T10:43:47.847Z,6.83
2019-06-26T10:46:14.050Z,7.95
2019-06-26T10:48:40.217Z,7.65
2019-06-26T10:51:06.384Z,7.85
2019-06-26T10:53:32.570Z,7.80
2019-06-26T10:55:58.784Z,7.37
2019-06-26T10:58:24.965Z,7.70
2019-06-26T11:00:51.174Z,8.05
2019-06-26T11:03:17.417Z,7.87
2019-06-26T11:05:44.382Z,6.95
2019-06-26T11:08:11.670Z,8.08
2019-06-26T11:10:37.876Z,7.47
2019-06-26T11:13:04.201Z,7.55
2019-06-26T11:15:30.374Z,7.65
2019-06-26T11:17:56.636Z,6.80
2019-06-26T11:20:22.984Z,7.60
2019-06-26T11:22:49.145Z,7.05
2019-06-26T11:25:18.252Z,6.90
2019-06-26T11:27:44.415Z,6.70
2019-06-26T11:30:11.409Z,7.03
2019-06-26T11:32:37.590Z,7.15
2019-06-26T11:35:05.433Z,7.00
2019-06-26T11:37:31.603Z,7.65
2019-06-26T11:39:57.764Z,7.00
2019-06-26T11:42:24.026Z,7.00
2019-06-26T11:44:50.164Z,6.97
2019-06-26T11:47:18.601Z,6.37
2019-06-26T11:49:59.058Z,6.17
2019-06-26T11:52:12.866Z,6.05
2019-06-26T11:54:39.055Z,6.12
2019-06-26T11:57:05.339Z,6.15
2019-06-26T11:59:31.583Z,6.20
2019-06-26T12:01:57.810Z,5.92
2019-06-26T12:04:24.081Z,6.47
2019-06-26T12:06:50.293Z,5.50
2019-06-26T12:09:16.545Z,5.80
2019-06-26T12:11:42.792Z,6.20
2019-06-26T12:14:09.046Z,5.95
2019-06-26T12:16:35.210Z,5.70
2019-06-26T12:19:01.417Z,6.08
2019-06-26T12:21:28.902Z,5.65
2019-06-26T12:23:55.057Z,5.67
2019-06-26T12:26:21.247Z,6.30
2019-06-26T12:28:47.477Z,6.05
2019-06-26T12:31:13.636Z,6.37
2019-06-26T12:33:39.820Z,5.85
2019-06-26T12:36:06.985Z,6.17
2019-06-26T12:38:33.403Z,5.90
2019-06-26T12:41:01.517Z,6.62
2019-06-26T12:43:27.842Z,5.97
2019-06-26T12:45:54.036Z,6.37
2019-06-26T12:48:20.494Z,7.00
2019-06-26T12:50:46.805Z,6.28
2019-06-26T12:53:12.984Z,6.03
2019-06-26T12:55:40.584Z,5.75
2019-06-26T12:58:13.621Z,6.00
2019-06-26T13:00:34.915Z,6.00
2019-06-26T13:03:01.241Z,5.50
2019-06-26T13:05:27.656Z,6.10
2019-06-26T13:07:54.247Z,5.78
2019-06-26T13:10:20.654Z,5.62
2019-06-26T13:12:47.901Z,6.05
2019-06-26T13:15:14.596Z,6.15
2019-06-26T13:17:40.959Z,6.08
2019-06-26T13:20:10.043Z,6.45
2019-06-26T13:22:36.082Z,6.90
2019-06-26T13:25:05.434Z,6.47
2019-06-26T13:27:31.690Z,6.00
2019-06-26T13:29:57.877Z,5.95
2019-06-26T13:32:24.023Z,6.58
2019-06-26T13:34:50.230Z,6.65
2019-06-26T13:37:16.710Z,5.75
2019-06-26T13:39:42.957Z,6.87
2019-06-26T13:42:20.880Z,6.40
2019-06-26T13:44:51.764Z,6.95
2019-06-26T13:47:17.948Z,6.58
2019-06-26T13:49:44.199Z,6.25
2019-06-26T13:52:10.342Z,6.65
2019-06-26T13:54:36.692Z,7.17
2019-06-26T13:57:03.056Z,6.35
2019-06-26T13:59:29.231Z,6.22
2019-06-26T14:01:55.412Z,6.28
2019-06-26T14:04:21.603Z,6.83
2019-06-26T14:06:47.836Z,6.90
2019-06-26T14:09:14.002Z,6.47
2019-06-26T14:11:40.339Z,6.53
2019-06-26T14:14:06.598Z,6.67
2019-06-26T14:16:32.870Z,7.47
2019-06-26T14:18:59.109Z,6.55
2019-06-26T14:21:26.391Z,6.30
2019-06-26T14:23:52.856Z,6.85
2019-06-26T14:26:19.042Z,6.55
2019-06-26T14:28:45.205Z,6.15
2019-06-26T14:31:11.587Z,6.45
2019-06-26T14:33:37.753Z,6.65
2019-06-26T14:36:04.014Z,5.80
2019-06-26T14:38:30.484Z,6.75
2019-06-26T14:40:56.660Z,6.42
2019-06-26T14:43:22.838Z,6.22
2019-06-26T14:45:49.014Z,6.35
2019-06-26T14:48:16.293Z,6.08
2019-06-26T14:50:42.759Z,5.90
2019-06-26T14:53:08.931Z,5.72
2019-06-26T14:55:35.117Z,5.80
2019-06-26T14:58:01.364Z,6.03
2019-06-26T15:00:27.837Z,6.30
2019-06-26T15:02:53.989Z,5.95
2019-06-26T15:05:20.199Z,5.97
2019-06-26T15:07:49.854Z,5.60
2019-06-26T15:10:15.644Z,5.58
2019-06-26T15:12:41.809Z,5.60
2019-06-26T15:15:08.619Z,5.95
2019-06-26T15:17:35.133Z,6.00
2019-06-26T15:20:01.613Z,6.22
2019-06-26T15:22:27.793Z,5.90
2019-06-26T15:24:54.072Z,6.30
2019-06-26T15:27:20.269Z,6.08
2019-06-26T15:29:47.299Z,6.53
2019-06-26T15:32:13.526Z,5.83
2019-06-26T15:34:39.749Z,6.10
2019-06-26T15:37:05.943Z,6.30
2019-06-26T15:39:32.234Z,5.62
2019-06-26T15:41:58.440Z,6.10
2019-06-26T15:44:24.608Z,6.47
2019-06-26T15:46:50.858Z,6.00
2019-06-26T15:49:17.021Z,6.25
2019-06-26T15:51:43.362Z,7.03
2019-06-26T15:54:09.524Z,6.03
2019-06-26T15:56:35.967Z,6.35
2019-06-26T15:59:02.109Z,6.22
2019-06-26T16:01:28.570Z,5.97
2019-06-26T16:03:54.743Z,5.80
2019-06-26T16:06:20.936Z,6.72
2019-06-26T16:08:47.271Z,5.78
2019-06-26T16:11:13.965Z,5.70
2019-06-26T16:13:40.241Z,5.87
2019-06-26T16:16:06.467Z,5.30
2019-06-26T16:18:34.625Z,6.00
2019-06-26T16:21:00.810Z,5.78
2019-06-26T16:23:26.995Z,5.33
2019-06-26T16:25:53.154Z,5.80
2019-06-26T16:28:19.321Z,5.83
2019-06-26T16:30:45.514Z,6.22
2019-06-26T16:33:11.770Z,5.78
2019-06-26T16:35:37.964Z,5.45
2019-06-26T16:38:04.172Z,6.15
2019-06-26T16:40:30.376Z,5.60
2019-06-26T16:42:56.537Z,5.85
2019-06-26T16:45:22.730Z,5.15
2019-06-26T16:47:48.966Z,6.05
2019-06-26T16:50:15.672Z,5.85
2019-06-26T16:52:49.087Z,5.95
2019-06-26T16:55:10.128Z,5.60
2019-06-26T16:57:36.333Z,6.03
2019-06-26T17:00:10.231Z,6.08
2019-06-26T17:02:37.214Z,5.62
2019-06-26T17:05:07.167Z,5.80
2019-06-26T17:07:33.366Z,5.90
2019-06-26T17:09:59.542Z,6.20
2019-06-26T17:12:25.733Z,6.12
2019-06-26T17:14:51.992Z,6.42
2019-06-26T17:17:18.181Z,5.70
2019-06-26T17:19:44.383Z,5.83
2019-06-26T17:22:10.621Z,5.85
2019-06-26T17:24:36.809Z,5.65
2019-06-26T17:27:02.985Z,5.80
2019-06-26T17:29:29.160Z,6.37
2019-06-26T17:31:55.318Z,6.47
2019-06-26T17:34:21.501Z,5.78
2019-06-26T17:36:47.789Z,6.45
2019-06-26T17:39:13.994Z,6.60
2019-06-26T17:41:43.211Z,6.00
2019-06-26T17:44:08.346Z,5.90
2019-06-26T17:46:35.621Z,6.17
2019-06-26T17:49:02.011Z,5.42
2019-06-26T17:51:28.327Z,5.65
2019-06-26T17:53:54.577Z,6.33
2019-06-26T17:56:20.762Z,5.60
2019-06-26T17:58:46.997Z,6.15
2019-06-26T18:01:13.162Z,6.25
2019-06-26T18:03:39.347Z,5.58
2019-06-26T18:06:05.710Z,5.85
2019-06-26T18:08:31.960Z,5.83
2019-06-26T18:10:58.153Z,6.28
2019-06-26T18:13:24.429Z,6.33
2019-06-26T18:15:50.766Z,6.53
2019-06-26T18:18:17.028Z,6.22
2019-06-26T18:20:43.208Z,6.20
2019-06-26T18:23:09.728Z,6.35
2019-06-26T18:25:35.921Z,6.33
2019-06-26T18:28:02.214Z,7.08
2019-06-26T18:30:28.408Z,6.42
2019-06-26T18:32:54.615Z,7.00
2019-06-26T18:35:20.913Z,6.70
2019-06-26T18:37:47.189Z,6.25
2019-06-26T18:40:13.528Z,5.78
2019-06-26T18:42:39.736Z,5.67
2019-06-26T18:45:06.592Z,5.83
2019-06-26T18:47:32.883Z,6.30
2019-06-26T18:49:59.091Z,7.70
2019-06-26T18:52:25.409Z,6.67
2019-06-26T18:54:51.562Z,6.65
2019-06-26T18:57:17.736Z,6.60
2019-06-26T18:59:43.920Z,6.87
2019-06-26T19:02:10.088Z,6.97
2019-06-26T19:04:36.255Z,6.75
2019-06-26T19:07:03.459Z,7.92
2019-06-26T19:09:31.388Z,6.95
2019-06-26T19:11:57.653Z,6.90
2019-06-26T19:14:23.806Z,7.12
2019-06-26T19:16:49.985Z,7.05
2019-06-26T19:19:17.347Z,6.97
2019-06-26T19:21:43.525Z,7.42
2019-06-26T19:24:10.891Z,7.33
2019-06-26T19:26:37.109Z,7.40
2019-06-26T19:29:03.269Z,6.97
2019-06-26T19:31:29.454Z,7.37
2019-06-26T19:33:55.615Z,7.22
2019-06-26T19:36:25.062Z,7.67
2019-06-26T19:38:49.869Z,8.30
2019-06-26T19:41:16.046Z,7.58
2019-06-26T19:43:42.284Z,8.33
2019-06-26T19:46:08.597Z,7.72
2019-06-26T19:48:34.779Z,8.75
2019-06-26T19:51:01.031Z,8.35
2019-06-26T19:53:27.194Z,8.15
2019-06-26T19:55:53.412Z,8.33
2019-06-26T19:58:21.499Z,8.63
2019-06-26T20:00:48.676Z,8.43
2019-06-26T20:03:14.844Z,9.00
2019-06-26T20:05:41.134Z,9.65
2019-06-26T20:08:07.281Z,9.30
2019-06-26T20:10:33.469Z,9.28
2019-06-26T20:12:59.636Z,9.35
2019-06-26T20:15:25.851Z,10.55
2019-06-26T20:17:52.058Z,10.48
2019-06-26T20:20:18.316Z,9.58
2019-06-26T20:22:44.477Z,9.83
2019-06-26T20:25:11.063Z,10.20
2019-06-26T20:27:37.277Z,9.53
2019-06-26T20:30:04.978Z,9.93
2019-06-26T20:32:31.146Z,9.78
2019-06-26T20:34:57.310Z,9.93
2019-06-26T20:37:23.481Z,9.33
2019-06-26T20:39:49.654Z,11.05
2019-06-26T20:42:15.877Z,9.93
2019-06-26T20:44:42.047Z,10.58
2019-06-26T20:47:08.244Z,10.10
2019-06-26T20:49:34.413Z,10.23
2019-06-26T20:52:00.605Z,9.83
2019-06-26T20:54:26.768Z,10.25
2019-06-26T20:56:52.965Z,10.15
2019-06-26T20:59:19.274Z,10.53
2019-06-26T21:01:45.586Z,9.35
2019-06-26T21:04:11.751Z,10.88
2019-06-26T21:06:37.944Z,10.60
2019-06-26T21:09:04.650Z,11.22
2019-06-26T21:11:31.528Z,10.20
2019-06-26T21:13:57.681Z,10.72
2019-06-26T21:16:23.852Z,11.15
2019-06-26T21:18:54.103Z,11.35
2019-06-26T21:21:20.358Z,11.90
2019-06-26T21:23:46.526Z,11.75
2019-06-26T21:26:12.694Z,13.08
2019-06-26T21:28:38.884Z,10.90
2019-06-26T21:31:05.069Z,11.95
2019-06-26T21:33:31.310Z,12.10
2019-06-26T21:35:58.608Z,12.00
2019-06-26T21:38:24.775Z,11.95
2019-06-26T21:40:50.962Z,12.05
2019-06-26T21:43:17.132Z,13.03
2019-06-26T21:45:43.299Z,12.93
2019-06-26T21:48:09.474Z,12.68
2019-06-26T21:50:36.742Z,13.30
2019-06-26T21:53:04.073Z,12.85
2019-06-26T21:55:34.628Z,13.83
2019-06-26T21:58:18.729Z,13.48
2019-06-26T22:01:03.815Z,13.70
2019-06-26T22:03:48.933Z,13.20
2019-06-26T22:06:17.530Z,12.93
2019-06-26T22:08:48.525Z,13.20
2019-06-26T22:11:16.619Z,14.70
2019-06-26T22:13:43.099Z,13.90
2019-06-26T22:16:09.258Z,14.28
2019-06-26T22:18:35.485Z,13.75
2019-06-26T22:21:01.685Z,13.98
2019-06-26T22:23:27.987Z,13.98
2019-06-26T22:25:54.149Z,14.18
2019-06-26T22:28:20.309Z,14.35
2019-06-26T22:30:46.567Z,13.55
2019-06-26T22:33:12.742Z,14.25
2019-06-26T22:35:39.328Z,13.88
2019-06-26T22:38:05.739Z,13.45
2019-06-26T22:40:32.006Z,13.60
2019-06-26T22:42:58.201Z,14.18
2019-06-26T22:45:24.409Z,13.93
2019-06-26T22:47:50.611Z,13.25
2019-06-26T22:50:17.279Z,13.72
2019-06-26T22:52:43.461Z,13.55
2019-06-26T22:55:10.063Z,15.03
2019-06-26T22:57:36.243Z,13.58
2019-06-26T23:00:05.309Z,14.38
2019-06-26T23:02:33.430Z,14.40
2019-06-26T23:04:59.613Z,13.13
2019-06-26T23:07:26.013Z,13.48
2019-06-26T23:09:52.202Z,13.43
2019-06-26T23:12:18.370Z,13.20
2019-06-26T23:14:44.564Z,13.43
2019-06-26T23:17:10.718Z,13.75
2019-06-26T23:19:36.915Z,13.98
2019-06-26T23:22:03.542Z,14.03
2019-06-26T23:24:29.730Z,13.15
2019-06-26T23:26:55.971Z,13.20
2019-06-26T23:29:22.177Z,13.38
2019-06-26T23:31:48.339Z,13.90
2019-06-26T23:34:15.041Z,13.85
2019-06-26T23:36:41.208Z,12.50
2019-06-26T23:39:07.382Z,13.88
2019-06-26T23:41:33.560Z,12.80
2019-06-26T23:43:59.765Z,13.38
2019-06-26T23:46:27.049Z,13.32
2019-06-26T23:48:53.216Z,12.60
2019-06-26T23:51:19.393Z,12.60
2019-06-26T23:53:45.868Z,12.98
2019-06-26T23:56:12.061Z,12.75
2019-06-26T23:58:38.228Z,12.70
